Time;durP1;ratioP1;P1;durP2;ratioP2;P2;SDS_P1;SDS_P2;PMS_P1;PMS_P2;Temp;Humidity;BMP_temperature;BMP_pressure;BME280_temperature;BME280_humidity;BME280_pressure;Samples;Min_cycle;Max_cycle;Signal;HPM_P1;HPM_P2
2023/01/17 13:33:54;;;;;;;0.00;0.00;;;3.90;99.90;;;;;;5045538;28;20036;-92
2023/01/17 13:37:09;;;;;;;0.50;0.20;;;4.30;99.90;;;;;;5046119;28;20053;-94
2023/01/17 13:40:11;;;;;;;0.37;0.03;;;3.80;99.90;;;;;;5033038;28;20033;-93
2023/01/17 13:43:00;;;;;;;0.30;0.03;;;3.70;99.90;;;;;;5018481;28;20443;-94
2023/01/17 13:45:30;;;;;;;1.70;0.00;;;3.90;99.90;;;;;;5027575;28;20021;-93
2023/01/17 13:48:17;;;;;;;0.20;0.10;;;3.80;99.90;;;;;;5028851;28;20033;-92
2023/01/17 13:51:01;;;;;;;0.77;0.10;;;3.80;99.90;;;;;;5030198;28;20109;-93
2023/01/17 13:53:33;;;;;;;0.73;0.10;;;4.80;99.90;;;;;;5037187;28;20021;-92
2023/01/17 13:56:21;;;;;;;0.00;0.00;;;3.90;99.90;;;;;;5035493;28;20022;-92
2023/01/17 13:59:01;;;;;;;0.00;0.00;;;4.10;99.90;;;;;;5030977;28;20029;-92
2023/01/17 14:01:38;;;;;;;0.80;0.20;;;5.30;99.90;;;;;;5034180;28;20551;-92
2023/01/17 14:04:05;;;;;;;0.30;0.10;;;3.30;99.90;;;;;;5034738;28;20025;-91
2023/01/17 14:06:45;;;;;;;0.23;0.10;;;3.20;99.90;;;;;;5035045;28;20022;-93
2023/01/17 14:09:17;;;;;;;0.50;0.20;;;4.10;99.90;;;;;;5035954;28;20783;-92
2023/01/17 14:12:03;;;;;;;0.08;0.08;;;3.90;99.90;;;;;;5031124;28;20065;-93
2023/01/17 14:14:43;;;;;;;0.77;0.20;;;3.80;99.90;;;;;;5034999;28;20120;-92
2023/01/17 14:17:25;;;;;;;0.40;0.10;;;3.80;99.90;;;;;;5030812;28;20036;-93
2023/01/17 14:20:04;;;;;;;1.50;0.20;;;3.70;99.90;;;;;;5031505;28;20037;-93
2023/01/17 14:22:36;;;;;;;0.43;0.10;;;3.70;99.90;;;;;;5027992;28;21062;-93
2023/01/17 14:25:13;;;;;;;2.40;0.13;;;3.60;99.90;;;;;;5028871;28;20022;-92
2023/01/17 14:27:50;;;;;;;0.13;0.10;;;4.00;99.90;;;;;;5038567;28;20040;-93
2023/01/17 14:30:28;;;;;;;0.70;0.20;;;3.90;99.90;;;;;;5042486;28;20026;-93
2023/01/17 14:33:09;;;;;;;2.93;0.20;;;3.40;99.90;;;;;;5041769;28;20029;-93
2023/01/17 14:36:04;;;;;;;0.70;0.13;;;3.40;99.90;;;;;;5017291;28;20034;-93
2023/01/17 14:38:35;;;;;;;0.10;0.10;;;4.40;99.90;;;;;;5029577;28;20034;-92
2023/01/17 14:41:08;;;;;;;2.03;0.50;;;3.50;99.90;;;;;;5026237;28;20029;-91
2023/01/17 15:07:26;;;;;;;1.00;0.33;;;3.60;99.90;;;;;;5064631;28;20052;-91
2023/01/17 15:10:02;;;;;;;1.40;0.30;;;3.50;99.90;;;;;;5063182;28;20143;-91
2023/01/17 15:12:30;;;;;;;1.43;0.30;;;3.70;99.90;;;;;;5050206;28;20038;-91
2023/01/17 15:15:42;;;;;;;1.70;0.23;;;3.70;99.90;;;;;;5065352;28;20028;-90
2023/01/17 15:22:05;;;;;;;3.67;0.33;;;2.80;99.90;;;;;;4940790;28;20042;-92
2023/01/17 15:32:21;;;;;;;1.90;0.50;;;3.30;99.90;;;;;;5031301;28;20046;-92
2023/01/17 15:34:51;;;;;;;3.00;0.77;;;3.30;99.90;;;;;;5030429;28;20128;-91
2023/01/17 15:37:35;;;;;;;2.23;0.50;;;3.30;99.90;;;;;;5025198;28;20845;-91
2023/01/17 15:40:21;;;;;;;0.83;0.20;;;3.30;99.90;;;;;;5026269;28;20021;-91
2023/01/17 15:43:03;;;;;;;5.10;0.40;;;4.20;99.90;;;;;;5035874;28;20025;-91
2023/01/17 15:45:36;;;;;;;1.13;0.20;;;3.30;99.90;;;;;;5022719;28;20029;-89
2023/01/17 15:48:27;;;;;;;;;;;3.10;99.90;;;;;;5025660;28;20053;-91
2023/01/17 15:51:02;;;;;;;3.03;0.40;;;3.20;99.90;;;;;;5038254;28;20388;-92
2023/01/17 15:53:41;;;;;;;2.13;0.50;;;3.60;99.90;;;;;;5015555;28;20041;-92
2023/01/17 15:56:30;;;;;;;1.53;0.40;;;3.10;99.90;;;;;;5025400;28;20029;-90
2023/01/17 15:59:33;;;;;;;1.57;0.40;;;3.10;99.90;;;;;;5033943;28;20033;-89
2023/01/17 16:02:00;;;;;;;;;;;3.20;99.90;;;;;;5021320;28;20034;-90
2023/01/17 16:04:31;;;;;;;1.53;0.30;;;3.10;99.90;;;;;;5023064;28;19924;-91
2023/01/17 16:07:19;;;;;;;1.90;0.37;;;3.00;99.90;;;;;;5026503;28;20032;-91
2023/01/17 16:09:48;;;;;;;4.40;0.53;;;3.40;99.90;;;;;;5029175;28;20017;-92
2023/01/17 16:12:19;;;;;;;2.97;0.40;;;3.10;99.90;;;;;;5016940;28;20343;-92
2023/01/17 16:14:46;;;;;;;1.50;0.30;;;3.00;99.90;;;;;;5028745;28;20097;-91
2023/01/17 16:17:37;;;;;;;2.93;0.70;;;4.00;99.90;;;;;;5024980;28;20037;-91
2023/01/17 16:20:35;;;;;;;2.77;0.30;;;3.00;99.90;;;;;;5037455;28;20037;-92
2023/01/17 16:23:21;;;;;;;3.30;0.53;;;3.00;99.90;;;;;;5019373;28;20029;-92
2023/01/17 16:26:10;;;;;;;2.20;0.40;;;2.90;99.90;;;;;;5016401;28;20034;-92
2023/01/17 16:28:51;;;;;;;3.70;0.53;;;3.00;99.90;;;;;;5017559;28;20473;-92
2023/01/17 16:34:28;;;;;;;1.80;0.50;;;2.80;99.90;;;;;;5010612;28;20029;-92
2023/01/17 16:37:34;;;;;;;5.03;0.50;;;2.80;99.90;;;;;;5024739;28;20695;-91
2023/01/17 16:40:39;;;;;;;2.47;0.53;;;2.70;99.90;;;;;;5019651;28;20465;-93
2023/01/17 16:47:28;;;;;;;;;;;;;;;;;;;;;
2023/01/17 16:54:10;;;;;;;1.57;0.43;;;2.60;99.90;;;;;;5044188;28;20033;-92
2023/01/17 16:57:14;;;;;;;2.70;0.73;;;2.60;99.90;;;;;;5024837;28;20021;-93
2023/01/17 17:10:18;;;;;;;3.23;0.60;;;2.40;99.90;;;;;;5025690;26;20042;-90
2023/01/17 17:16:50;;;;;;;2.77;0.80;;;2.50;99.90;;;;;;5016339;28;20053;-91
2023/01/17 17:19:46;;;;;;;1.43;0.43;;;2.40;99.90;;;;;;5018391;28;20041;-91
2023/01/17 17:22:39;;;;;;;2.43;0.77;;;2.30;99.90;;;;;;5010765;28;20034;-91
2023/01/17 17:25:28;;;;;;;3.43;0.67;;;2.20;99.90;;;;;;5000750;28;20256;-91
2023/01/17 17:28:30;;;;;;;3.77;0.37;;;2.10;99.90;;;;;;5020625;28;20025;-91
2023/01/17 17:34:39;;;;;;;2.60;0.60;;;1.90;99.90;;;;;;5033164;28;20049;-90
2023/01/17 17:37:34;;;;;;;0.70;0.20;;;1.70;99.90;;;;;;5035930;28;20125;-91
2023/01/17 17:39:59;;;;;;;3.03;0.50;;;1.60;99.90;;;;;;5016628;28;20040;-90
2023/01/17 17:46:11;;;;;;;2.30;0.70;;;1.40;99.90;;;;;;5041969;28;20033;-91
2023/01/17 21:34:06;;;;;;;4.83;1.70;;;1.00;99.90;;;;;;3183704;22;20085;-92
2023/01/17 21:36:44;;;;;;;3.27;1.50;;;1.00;99.90;;;;;;5059889;28;20025;-93
2023/01/17 21:39:20;;;;;;;5.10;1.77;;;1.00;99.90;;;;;;5059287;28;20073;-93
2023/01/17 21:47:00;;;;;;;5.37;1.73;;;1.00;99.90;;;;;;3398482;22;20064;-91
2023/01/17 21:49:35;;;;;;;5.13;2.00;;;0.90;99.90;;;;;;5082592;28;20020;-92
2023/01/17 21:52:25;;;;;;;4.43;1.90;;;1.00;99.90;;;;;;5064311;28;20493;-93
2023/01/17 22:00:46;;;;;;;5.87;1.87;;;0.90;99.90;;;;;;5057531;28;20113;-93
2023/01/17 22:03:27;;;;;;;5.82;1.67;;;0.90;99.90;;;;;;5060173;28;20025;-94
2023/01/17 22:06:01;;;;;;;6.50;1.50;;;0.90;99.90;;;;;;5053105;28;20477;-93
2023/01/17 22:08:38;;;;;;;6.60;2.07;;;1.00;99.90;;;;;;5062736;28;20017;-94
2023/01/17 22:11:13;;;;;;;6.30;2.10;;;1.00;99.90;;;;;;5058264;28;20500;-93
2023/01/17 22:14:07;;;;;;;6.70;2.03;;;1.00;99.90;;;;;;5060533;28;20020;-94
2023/01/17 22:16:33;;;;;;;5.60;2.27;;;1.10;99.90;;;;;;5057032;28;20021;-92
2023/01/17 22:19:07;;;;;;;5.93;1.80;;;1.00;99.90;;;;;;5051285;28;20103;-94
2023/01/17 22:21:33;;;;;;;6.00;1.87;;;1.20;99.90;;;;;;5051897;28;20033;-94
2023/01/17 22:23:59;;;;;;;4.97;2.00;;;1.00;99.90;;;;;;5041583;28;20144;-94
2023/01/17 22:26:27;;;;;;;4.80;1.63;;;1.00;99.90;;;;;;5048450;28;20017;-92
2023/01/17 22:28:54;;;;;;;4.90;2.03;;;0.90;99.90;;;;;;5058048;28;20435;-93
2023/01/17 22:31:22;;;;;;;5.10;1.70;;;1.10;99.90;;;;;;5057179;28;20104;-92
2023/01/17 22:33:53;;;;;;;5.97;1.80;;;0.80;99.90;;;;;;5044006;28;20021;-93
2023/01/17 22:36:21;;;;;;;5.53;2.10;;;0.80;99.90;;;;;;5039490;28;20030;-93
2023/01/17 22:38:48;;;;;;;4.30;1.90;;;0.80;99.90;;;;;;5044380;28;20021;-93
2023/01/17 22:41:16;;;;;;;6.03;1.87;;;1.00;99.90;;;;;;5047601;28;20112;-93
2023/01/17 22:43:53;;;;;;;4.40;1.97;;;1.00;99.90;;;;;;5052051;28;20022;-93
2023/01/17 22:46:21;;;;;;;4.30;1.73;;;1.00;99.90;;;;;;5068906;28;20025;-92
2023/01/17 22:48:48;;;;;;;5.50;1.80;;;0.80;99.90;;;;;;5069225;28;20205;-93
2023/01/17 22:51:15;;;;;;;7.30;1.70;;;0.90;99.90;;;;;;5070154;28;20025;-93
2023/01/17 22:53:47;;;;;;;6.50;2.10;;;1.10;99.90;;;;;;5052162;28;20033;-93
2023/01/17 22:56:18;;;;;;;6.30;1.67;;;1.00;99.90;;;;;;5065647;28;20095;-93
2023/01/17 22:58:44;;;;;;;6.70;2.00;;;0.90;99.90;;;;;;5057643;28;20027;-93
2023/01/17 23:01:19;;;;;;;7.23;2.07;;;0.90;99.90;;;;;;5063324;28;20039;-93
2023/01/17 23:03:46;;;;;;;6.43;1.80;;;0.60;99.90;;;;;;5066888;28;20016;-93
2023/01/17 23:06:17;;;;;;;6.03;2.07;;;1.00;99.90;;;;;;5065196;28;20110;-93
2023/01/17 23:08:47;;;;;;;6.47;2.25;;;0.90;99.90;;;;;;5067206;28;20468;-93
2023/01/17 23:11:39;;;;;;;4.83;1.83;;;0.90;99.90;;;;;;5058938;28;20033;-93
2023/01/17 23:14:23;;;;;;;5.47;1.67;;;0.80;99.90;;;;;;5070931;28;20040;-93
2023/01/17 23:20:06;;;;;;;5.57;2.10;;;0.90;99.90;;;;;;4989086;28;20027;-93
2023/01/17 23:22:32;;;;;;;6.83;2.10;;;0.90;99.90;;;;;;4971399;28;20058;-93
2023/01/17 23:25:02;;;;;;;4.97;1.50;;;0.90;99.90;;;;;;5022538;28;20033;-94
2023/01/17 23:30:20;;;;;;;6.33;2.00;;;0.90;99.90;;;;;;5057412;28;20504;-94
2023/01/17 23:32:48;;;;;;;6.00;2.03;;;0.90;99.90;;;;;;5053313;28;20021;-93
2023/01/17 23:35:21;;;;;;;3.40;1.70;;;0.90;99.90;;;;;;5063646;28;20028;-93
2023/01/17 23:40:33;;;;;;;4.80;1.53;;;0.80;99.90;;;;;;5059410;28;20033;-93
2023/01/17 23:45:42;;;;;;;3.20;1.10;;;0.80;99.90;;;;;;5049805;28;20037;-93
2023/01/17 23:48:08;;;;;;;4.20;1.60;;;0.80;99.90;;;;;;5049300;28;20033;-93
2023/01/17 23:50:50;;;;;;;5.53;1.27;;;0.80;99.90;;;;;;5053338;28;20128;-93
2023/01/17 23:53:21;;;;;;;4.43;1.17;;;0.80;99.90;;;;;;5039452;28;20029;-93
2023/01/17 23:55:50;;;;;;;5.33;1.20;;;0.90;99.90;;;;;;5049499;28;20029;-93
2023/01/17 23:58:21;;;;;;;7.30;2.03;;;0.90;99.90;;;;;;5058730;28;20029;-93
